Time;durP1;ratioP1;P1;durP2;ratioP2;P2;SDS_P1;SDS_P2;PMS_P1;PMS_P2;Temp;Humidity;BMP_temperature;BMP_pressure;BME280_temperature;BME280_humidity;BME280_pressure;Samples;Min_cycle;Max_cycle;Signal;HPM_P1;HPM_P2
2024/03/22 00:02:09;;;;;;;5.23;3.50;;;9.60;99.90;;;;;;5037827;28;20454;-84
2024/03/22 00:04:35;;;;;;;6.23;3.67;;;9.60;99.90;;;;;;5037424;28;20443;-84
2024/03/22 00:07:03;;;;;;;2.87;2.60;;;9.50;99.90;;;;;;5036216;28;20451;-83
2024/03/22 00:09:29;;;;;;;8.57;3.70;;;9.60;99.90;;;;;;5037015;28;20216;-83
2024/03/22 00:11:56;;;;;;;16.13;3.60;;;9.60;99.90;;;;;;5037400;28;20451;-84
2024/03/22 00:14:22;;;;;;;3.60;3.30;;;9.60;99.90;;;;;;5037929;28;20210;-83
2024/03/22 00:16:49;;;;;;;9.40;4.17;;;9.60;99.90;;;;;;5037416;28;20447;-84
2024/03/22 00:19:14;;;;;;;8.23;3.80;;;9.50;99.90;;;;;;5037429;28;20354;-84
2024/03/22 00:21:41;;;;;;;5.27;4.00;;;9.50;99.90;;;;;;5037807;28;20491;-84
2024/03/22 00:24:08;;;;;;;4.73;3.73;;;9.50;99.90;;;;;;5041551;28;20200;-84
2024/03/22 00:26:35;;;;;;;6.13;3.30;;;9.40;99.90;;;;;;5039627;28;20457;-84
2024/03/22 00:29:01;;;;;;;5.33;2.80;;;9.50;99.90;;;;;;5037901;28;20494;-84
2024/03/22 00:31:28;;;;;;;5.50;3.13;;;9.30;99.90;;;;;;5038009;28;20829;-83
2024/03/22 00:33:53;;;;;;;3.63;2.90;;;9.30;99.90;;;;;;5037451;28;20200;-84
2024/03/22 00:36:20;;;;;;;9.73;3.70;;;9.30;99.90;;;;;;5044449;28;20958;-84
2024/03/22 00:38:46;;;;;;;9.20;4.70;;;9.20;99.90;;;;;;5038021;28;20596;-84
2024/03/22 00:41:15;;;;;;;7.30;3.90;;;9.30;99.90;;;;;;5037999;28;20443;-84
2024/03/22 00:43:40;;;;;;;4.70;3.67;;;9.20;99.90;;;;;;5037874;28;20445;-84
2024/03/22 00:46:07;;;;;;;8.20;3.90;;;9.20;99.90;;;;;;5038159;28;20451;-83
2024/03/22 00:48:35;;;;;;;7.03;3.77;;;9.10;99.90;;;;;;5037681;28;20224;-84
2024/03/22 00:51:01;;;;;;;5.50;3.60;;;9.10;99.90;;;;;;5037693;28;20472;-84
2024/03/22 00:53:27;;;;;;;6.40;3.77;;;9.10;99.90;;;;;;5037577;28;20457;-84
2024/03/22 00:55:56;;;;;;;5.73;3.50;;;9.00;99.90;;;;;;5037645;28;20543;-83
2024/03/22 00:58:23;;;;;;;5.87;4.20;;;9.00;99.90;;;;;;5037786;28;20227;-83
2024/03/22 01:00:50;;;;;;;6.00;4.17;;;9.00;99.90;;;;;;5037114;28;20450;-83
2024/03/22 01:03:15;;;;;;;8.20;4.37;;;9.00;99.90;;;;;;5037085;28;20459;-83
2024/03/22 01:05:42;;;;;;;7.73;4.30;;;8.90;99.90;;;;;;5036905;28;20453;-83
2024/03/22 01:08:08;;;;;;;9.43;4.73;;;8.90;99.90;;;;;;5036699;28;20220;-83
2024/03/22 01:10:35;;;;;;;8.13;4.83;;;8.90;99.90;;;;;;5036946;28;20446;-83
2024/03/22 01:13:01;;;;;;;8.50;4.93;;;8.90;99.90;;;;;;5036760;28;20238;-83
2024/03/22 01:15:29;;;;;;;5.43;3.60;;;8.90;99.90;;;;;;5036436;28;20451;-83
2024/03/22 01:17:55;;;;;;;3.87;3.57;;;8.90;99.90;;;;;;5035967;28;20238;-83
2024/03/22 01:20:22;;;;;;;7.27;3.73;;;8.80;99.90;;;;;;5036231;28;20451;-83
2024/03/22 01:22:49;;;;;;;4.47;2.97;;;8.80;99.90;;;;;;5036370;28;20450;-83
2024/03/22 01:25:16;;;;;;;4.70;3.70;;;8.80;99.90;;;;;;5036254;28;20447;-83
2024/03/22 01:27:41;;;;;;;4.30;3.07;;;8.80;99.90;;;;;;5036708;28;20493;-83
2024/03/22 01:30:09;;;;;;;4.60;2.50;;;8.80;99.90;;;;;;5036123;28;20534;-83
2024/03/22 01:32:36;;;;;;;8.20;3.33;;;8.70;99.90;;;;;;5036248;28;20238;-83
2024/03/22 01:35:03;;;;;;;3.40;3.10;;;8.70;99.90;;;;;;5035984;28;20439;-83
2024/03/22 01:37:29;;;;;;;4.07;2.93;;;8.70;99.90;;;;;;5035998;28;20451;-83
2024/03/22 01:39:56;;;;;;;3.60;2.60;;;8.60;99.90;;;;;;5035724;28;20446;-83
2024/03/22 01:42:22;;;;;;;3.47;2.80;;;8.60;99.90;;;;;;5036035;28;20673;-83
2024/03/22 01:44:50;;;;;;;5.80;3.60;;;8.60;99.90;;;;;;5036125;28;20459;-82
2024/03/22 01:47:16;;;;;;;6.40;3.97;;;8.60;99.90;;;;;;5035496;28;20431;-83
2024/03/22 01:49:44;;;;;;;5.90;3.47;;;8.50;99.90;;;;;;5035588;28;20482;-83
2024/03/22 01:52:10;;;;;;;4.63;2.03;;;8.60;99.90;;;;;;5053166;28;20426;-83
2024/03/22 01:54:37;;;;;;;8.30;3.13;;;8.50;99.90;;;;;;5056298;28;20493;-83
2024/03/22 01:57:03;;;;;;;3.43;3.03;;;8.40;99.90;;;;;;5055872;28;20299;-83
2024/03/22 01:59:31;;;;;;;8.50;3.13;;;8.40;99.90;;;;;;5053536;28;20458;-83
2024/03/22 02:01:58;;;;;;;8.87;4.53;;;8.40;99.90;;;;;;5043627;28;20485;-84
2024/03/22 02:04:24;;;;;;;8.50;3.10;;;8.30;99.90;;;;;;5036853;28;20485;-84
2024/03/22 02:06:52;;;;;;;3.47;2.23;;;8.20;99.90;;;;;;5036134;28;20452;-84
2024/03/22 02:09:20;;;;;;;8.10;4.33;;;8.20;99.90;;;;;;5038172;28;20501;-82
2024/03/22 02:11:46;;;;;;;7.30;3.30;;;8.10;99.90;;;;;;5041726;28;20455;-82
2024/03/22 02:14:13;;;;;;;4.07;3.20;;;8.10;99.90;;;;;;5042238;28;20477;-82
2024/03/22 02:16:40;;;;;;;5.90;3.07;;;8.00;99.90;;;;;;5042401;28;20470;-82
2024/03/22 02:19:07;;;;;;;2.97;2.07;;;8.00;99.90;;;;;;5045592;28;20458;-83
2024/03/22 02:21:32;;;;;;;4.67;2.30;;;7.80;99.90;;;;;;5042638;28;20437;-82
2024/03/22 02:24:01;;;;;;;4.57;2.80;;;8.00;99.90;;;;;;5038051;28;20435;-83
2024/03/22 02:26:26;;;;;;;4.30;3.20;;;7.80;99.90;;;;;;5036173;28;20695;-82
2024/03/22 02:28:53;;;;;;;5.80;3.30;;;7.90;99.90;;;;;;5035709;28;20481;-82
2024/03/22 02:34:57;;;;;;;3.77;2.87;;;7.80;99.90;;;;;;5038958;28;20430;-81
2024/03/22 02:37:23;;;;;;;4.60;2.50;;;7.70;99.90;;;;;;5038557;28;20523;-82
2024/03/22 02:39:51;;;;;;;6.00;2.57;;;7.70;99.90;;;;;;5039540;28;20442;-82
2024/03/22 02:42:16;;;;;;;4.10;2.73;;;7.70;99.90;;;;;;5038170;28;20212;-81
2024/03/22 02:44:43;;;;;;;4.20;3.20;;;7.70;99.90;;;;;;5038318;28;20431;-81
2024/03/22 02:47:10;;;;;;;9.20;3.83;;;7.80;99.90;;;;;;5037870;28;20196;-81
2024/03/22 02:49:37;;;;;;;4.47;3.23;;;7.70;99.90;;;;;;5038156;28;20991;-82
2024/03/22 02:52:03;;;;;;;4.40;3.00;;;7.70;99.90;;;;;;5038152;28;20802;-82
2024/03/22 02:54:29;;;;;;;5.63;2.83;;;7.70;99.90;;;;;;5038491;28;20454;-81
2024/03/22 02:56:56;;;;;;;3.43;2.93;;;7.70;99.90;;;;;;5037843;28;20534;-82
2024/03/22 02:59:26;;;;;;;7.50;3.60;;;7.70;99.90;;;;;;5037771;28;20459;-82
2024/03/22 03:01:52;;;;;;;5.77;3.53;;;7.70;99.90;;;;;;5037701;28;20843;-81
2024/03/22 03:04:19;;;;;;;6.10;3.03;;;7.80;99.90;;;;;;5037305;28;20500;-81
2024/03/22 03:06:45;;;;;;;8.97;3.87;;;7.70;99.90;;;;;;5037397;28;20208;-81
2024/03/22 03:09:12;;;;;;;3.33;2.97;;;7.90;99.90;;;;;;5037038;28;20979;-82
2024/03/22 03:11:39;;;;;;;5.27;3.40;;;7.90;99.90;;;;;;5036787;28;20529;-82
2024/03/22 03:14:07;;;;;;;9.43;3.20;;;8.00;99.90;;;;;;5036882;28;20886;-82
2024/03/22 03:16:33;;;;;;;5.17;3.40;;;8.10;99.90;;;;;;5036863;28;20435;-82
2024/03/22 03:19:00;;;;;;;8.50;3.90;;;8.10;99.90;;;;;;5037014;28;20461;-82
2024/03/22 03:21:25;;;;;;;3.27;2.80;;;8.20;99.90;;;;;;5045118;28;20204;-82
2024/03/22 03:23:52;;;;;;;10.70;5.00;;;8.20;99.90;;;;;;5037202;28;20803;-82
2024/03/22 03:26:18;;;;;;;6.40;4.20;;;8.20;99.90;;;;;;5037477;28;20196;-82
2024/03/22 03:28:45;;;;;;;6.73;2.73;;;8.30;99.90;;;;;;5036874;28;20536;-82
2024/03/22 03:31:12;;;;;;;4.13;3.27;;;8.30;99.90;;;;;;5039408;28;20226;-83
2024/03/22 03:33:39;;;;;;;7.33;3.73;;;8.30;99.90;;;;;;5040398;28;20431;-83
2024/03/22 03:36:05;;;;;;;4.47;3.10;;;8.30;99.90;;;;;;5040033;28;20497;-82
2024/03/22 03:38:32;;;;;;;4.33;2.80;;;8.30;99.90;;;;;;5039201;28;20461;-82
2024/03/22 03:40:58;;;;;;;6.40;3.40;;;8.30;99.90;;;;;;5039759;28;20459;-84
2024/03/22 03:43:25;;;;;;;3.27;2.83;;;8.20;99.90;;;;;;5039354;28;20442;-83
2024/03/22 03:45:50;;;;;;;6.67;3.57;;;8.20;99.90;;;;;;5038854;28;20202;-82
2024/03/22 03:48:18;;;;;;;5.00;3.40;;;8.30;99.90;;;;;;5038637;28;20454;-82
2024/03/22 03:50:52;;;;;;;8.73;3.57;;;8.20;99.90;;;;;;5038680;28;20223;-82
2024/03/22 03:53:18;;;;;;;4.50;2.70;;;8.20;99.90;;;;;;5039557;28;20519;-81
2024/03/22 03:55:44;;;;;;;5.33;3.00;;;8.20;99.90;;;;;;5038548;28;20446;-82
2024/03/22 03:58:11;;;;;;;6.00;2.83;;;8.20;99.90;;;;;;5037978;28;20455;-82
2024/03/22 04:00:37;;;;;;;6.00;3.47;;;8.30;99.90;;;;;;5038130;28;20202;-82
2024/03/22 04:03:04;;;;;;;6.67;3.63;;;8.20;99.90;;;;;;5038528;28;20878;-83
2024/03/22 04:05:31;;;;;;;5.80;3.00;;;8.20;99.90;;;;;;5038539;28;20215;-84
2024/03/22 04:07:58;;;;;;;8.13;3.27;;;8.20;99.90;;;;;;5037699;28;20479;-83
2024/03/22 04:10:24;;;;;;;4.40;3.10;;;8.10;99.90;;;;;;5037993;28;20494;-83
2024/03/22 04:12:51;;;;;;;3.33;2.70;;;8.10;99.90;;;;;;5037931;28;20450;-82
2024/03/22 04:15:16;;;;;;;6.63;3.73;;;8.20;99.90;;;;;;5037840;28;20210;-82
2024/03/22 04:17:43;;;;;;;4.93;3.13;;;8.10;99.90;;;;;;5044287;28;20505;-82
2024/03/22 04:20:11;;;;;;;7.03;3.10;;;8.10;99.90;;;;;;5038146;28;20669;-82
2024/03/22 04:22:39;;;;;;;4.53;3.27;;;8.20;99.90;;;;;;5038011;28;20490;-83
2024/03/22 04:25:06;;;;;;;5.80;2.97;;;8.10;99.90;;;;;;5038207;28;20446;-83
2024/03/22 04:27:32;;;;;;;6.23;3.83;;;8.20;99.90;;;;;;5037154;28;20465;-82
2024/03/22 04:30:00;;;;;;;8.40;3.80;;;8.20;99.90;;;;;;5037210;28;20486;-83
2024/03/22 04:32:27;;;;;;;7.17;3.10;;;8.30;99.90;;;;;;5037625;28;20447;-82
2024/03/22 04:34:54;;;;;;;6.73;3.43;;;8.30;99.90;;;;;;5037513;28;20431;-82
2024/03/22 04:37:21;;;;;;;5.70;3.63;;;8.30;99.90;;;;;;5037218;28;20451;-82
2024/03/22 04:39:49;;;;;;;3.93;2.93;;;8.30;99.90;;;;;;5037480;28;20448;-82
2024/03/22 04:42:16;;;;;;;10.23;3.00;;;8.30;99.90;;;;;;5037212;28;20435;-82
2024/03/22 04:44:43;;;;;;;3.40;2.53;;;8.40;99.90;;;;;;5037362;28;20851;-83
2024/03/22 04:47:09;;;;;;;3.70;1.90;;;8.40;99.90;;;;;;5037825;28;20485;-83
2024/03/22 04:49:36;;;;;;;5.90;3.00;;;8.40;99.90;;;;;;5040973;28;20858;-82
2024/03/22 04:52:02;;;;;;;4.90;3.27;;;8.50;99.90;;;;;;5057758;28;20251;-82
2024/03/22 04:54:28;;;;;;;5.63;3.00;;;8.50;99.90;;;;;;5055923;28;20439;-82
2024/03/22 04:56:56;;;;;;;8.00;2.90;;;8.50;99.90;;;;;;5054251;28;20207;-83
2024/03/22 04:59:22;;;;;;;4.10;3.37;;;8.60;99.90;;;;;;5048907;28;20473;-82
2024/03/22 05:01:48;;;;;;;4.60;2.93;;;8.60;99.90;;;;;;5037133;28;20454;-83
2024/03/22 05:04:15;;;;;;;7.00;2.67;;;8.60;99.90;;;;;;5036874;28;20455;-82
2024/03/22 05:06:41;;;;;;;7.77;3.30;;;8.60;99.90;;;;;;5036354;28;20226;-83
2024/03/22 05:09:10;;;;;;;5.30;3.30;;;8.60;99.90;;;;;;5036436;28;21046;-82
2024/03/22 05:11:35;;;;;;;4.53;2.83;;;8.60;99.90;;;;;;5036130;28;20298;-83
2024/03/22 05:14:04;;;;;;;8.27;3.80;;;8.60;99.90;;;;;;5036108;28;20491;-81
2024/03/22 05:16:30;;;;;;;6.13;3.10;;;8.60;99.90;;;;;;5036565;28;20222;-81
2024/03/22 05:18:57;;;;;;;4.53;3.00;;;8.60;99.90;;;;;;5036083;28;21038;-81
2024/03/22 05:21:22;;;;;;;5.90;3.63;;;8.60;99.90;;;;;;5035736;28;20970;-81
2024/03/22 05:23:49;;;;;;;3.60;2.77;;;8.50;99.90;;;;;;5035991;28;20446;-81
2024/03/22 05:26:15;;;;;;;8.80;2.63;;;8.50;99.90;;;;;;5036019;28;20196;-83
2024/03/22 05:28:42;;;;;;;2.93;2.50;;;8.40;99.90;;;;;;5036162;28;20537;-83
2024/03/22 05:31:09;;;;;;;1.90;1.60;;;8.40;99.90;;;;;;5035995;28;20224;-83
2024/03/22 05:33:36;;;;;;;8.57;3.50;;;8.30;99.90;;;;;;5036032;28;20859;-83
2024/03/22 05:36:02;;;;;;;4.80;2.90;;;8.30;99.90;;;;;;5035855;28;20448;-82
2024/03/22 05:38:29;;;;;;;3.67;3.10;;;8.30;99.90;;;;;;5036228;28;20463;-81
2024/03/22 05:40:54;;;;;;;5.47;3.10;;;8.30;99.90;;;;;;5035933;28;20208;-81
2024/03/22 05:43:21;;;;;;;3.43;2.93;;;8.30;99.90;;;;;;5035990;28;20450;-81
2024/03/22 05:45:48;;;;;;;4.90;3.30;;;8.50;99.90;;;;;;5036009;28;20203;-83
2024/03/22 05:48:16;;;;;;;4.03;2.10;;;8.40;99.90;;;;;;5036018;28;20485;-83
2024/03/22 05:50:42;;;;;;;8.97;3.03;;;8.30;99.90;;;;;;5035304;28;21085;-82
2024/03/22 05:53:09;;;;;;;8.60;2.40;;;8.40;99.90;;;;;;5036017;28;20475;-82
2024/03/22 05:55:34;;;;;;;6.80;2.87;;;8.40;99.90;;;;;;5036922;28;20211;-83
2024/03/22 05:58:01;;;;;;;10.33;3.63;;;8.50;99.90;;;;;;5035966;28;20826;-83
2024/03/22 06:00:27;;;;;;;5.20;2.50;;;8.60;99.90;;;;;;5035922;28;20212;-83
2024/03/22 06:02:54;;;;;;;6.23;3.13;;;8.70;99.90;;;;;;5036294;28;20793;-81
2024/03/22 06:05:21;;;;;;;4.23;2.97;;;8.70;99.90;;;;;;5038089;28;20208;-83
2024/03/22 06:07:47;;;;;;;4.27;2.63;;;8.80;99.90;;;;;;5039289;28;20473;-84
2024/03/22 06:10:13;;;;;;;3.27;2.83;;;8.90;99.90;;;;;;5038704;28;20481;-83
2024/03/22 06:12:41;;;;;;;4.37;3.30;;;8.90;99.90;;;;;;5039131;28;20430;-81
2024/03/22 06:15:07;;;;;;;6.33;3.27;;;9.00;99.90;;;;;;5038584;28;20207;-83
2024/03/22 06:17:34;;;;;;;3.03;2.67;;;9.10;99.90;;;;;;5038239;28;21002;-84
2024/03/22 06:20:00;;;;;;;3.33;2.23;;;9.10;99.90;;;;;;5045752;28;20442;-84
2024/03/22 06:22:28;;;;;;;12.40;3.23;;;9.20;99.90;;;;;;5039707;28;20803;-84
2024/03/22 06:24:54;;;;;;;3.23;2.50;;;9.30;99.90;;;;;;5039978;28;20449;-82
2024/03/22 06:27:20;;;;;;;3.57;3.17;;;9.40;99.90;;;;;;5039792;28;20442;-82
2024/03/22 06:29:46;;;;;;;4.43;2.13;;;9.60;99.90;;;;;;5038917;28;20243;-82
2024/03/22 06:32:13;;;;;;;4.03;3.00;;;9.70;99.90;;;;;;5039184;28;20426;-82
2024/03/22 06:34:39;;;;;;;3.80;3.00;;;9.80;99.90;;;;;;5039608;28;20215;-82
2024/03/22 06:37:06;;;;;;;10.97;4.07;;;9.90;99.90;;;;;;5039398;28;20447;-82
2024/03/22 06:39:33;;;;;;;5.40;3.63;;;9.90;99.90;;;;;;5039352;28;20557;-82
2024/03/22 06:41:59;;;;;;;6.30;2.83;;;10.00;99.90;;;;;;5038911;28;20446;-82
2024/03/22 06:44:25;;;;;;;6.17;3.60;;;9.90;99.90;;;;;;5038987;28;20435;-83
2024/03/22 06:46:52;;;;;;;3.57;2.70;;;9.90;99.90;;;;;;5038819;28;20811;-82
2024/03/22 06:49:18;;;;;;;5.17;3.73;;;9.90;99.90;;;;;;5038655;28;20266;-82
2024/03/22 06:51:45;;;;;;;4.23;3.03;;;9.90;99.90;;;;;;5038535;28;20450;-82
2024/03/22 06:54:10;;;;;;;6.60;3.50;;;9.90;99.90;;;;;;5038962;28;20208;-82
2024/03/22 06:56:38;;;;;;;6.03;3.33;;;10.00;99.90;;;;;;5038326;28;20451;-82
2024/03/22 06:59:04;;;;;;;5.33;2.87;;;10.10;99.90;;;;;;5038537;28;20224;-82
2024/03/22 07:01:31;;;;;;;3.93;2.70;;;10.30;99.90;;;;;;5038348;28;20472;-82
2024/03/22 07:03:57;;;;;;;6.57;3.20;;;10.30;99.90;;;;;;5038414;28;20291;-82
2024/03/22 07:06:23;;;;;;;8.63;3.07;;;10.20;99.90;;;;;;5038887;28;20455;-82
2024/03/22 07:08:49;;;;;;;4.37;3.30;;;10.30;99.90;;;;;;5038641;28;20224;-81
2024/03/22 07:11:16;;;;;;;7.93;3.30;;;10.20;99.90;;;;;;5038482;28;20478;-82
2024/03/22 07:13:43;;;;;;;4.73;2.60;;;10.20;99.90;;;;;;5038468;28;20203;-82
2024/03/22 07:16:10;;;;;;;5.07;3.80;;;10.20;99.90;;;;;;5037756;28;20478;-82
2024/03/22 07:18:36;;;;;;;8.77;3.20;;;10.20;99.90;;;;;;5037434;28;20474;-81
2024/03/22 07:21:03;;;;;;;4.67;2.83;;;10.20;99.90;;;;;;5037528;28;20481;-82
2024/03/22 07:23:29;;;;;;;3.73;3.07;;;10.20;99.90;;;;;;5037407;28;20447;-82
2024/03/22 07:25:56;;;;;;;5.07;3.30;;;10.30;99.90;;;;;;5037898;28;20501;-82
2024/03/22 07:28:22;;;;;;;5.73;2.77;;;10.30;99.90;;;;;;5037707;28;20588;-82
2024/03/22 07:30:50;;;;;;;6.77;3.37;;;10.30;99.90;;;;;;5037365;28;20486;-82
2024/03/22 07:33:17;;;;;;;4.40;2.80;;;10.40;99.90;;;;;;5037692;28;20204;-83
2024/03/22 07:35:44;;;;;;;4.00;2.77;;;10.50;99.90;;;;;;5037122;28;20455;-81
2024/03/22 07:38:10;;;;;;;4.73;3.07;;;10.60;99.90;;;;;;5037164;28;20477;-82
2024/03/22 07:40:37;;;;;;;3.30;2.93;;;10.70;99.90;;;;;;5037566;28;20443;-82
2024/03/22 07:43:05;;;;;;;5.40;3.77;;;10.90;99.90;;;;;;5039670;28;20458;-81
2024/03/22 07:45:32;;;;;;;3.63;3.13;;;11.00;99.90;;;;;;5038369;28;20446;-82
2024/03/22 07:48:00;;;;;;;3.50;2.70;;;11.20;99.90;;;;;;5036693;28;20455;-82
2024/03/22 07:50:26;;;;;;;4.53;2.47;;;11.40;99.90;;;;;;5037235;28;20479;-82
2024/03/22 07:52:52;;;;;;;5.50;3.83;;;11.40;99.90;;;;;;5036878;28;20858;-82
2024/03/22 07:55:19;;;;;;;2.57;2.47;;;11.60;99.90;;;;;;5036718;28;20508;-82
2024/03/22 07:57:45;;;;;;;3.70;3.00;;;11.70;99.90;;;;;;5039998;28;20224;-82
2024/03/22 08:00:13;;;;;;;4.20;2.87;;;11.80;99.90;;;;;;5043149;28;20437;-82
2024/03/22 08:02:39;;;;;;;5.63;3.10;;;11.80;99.90;;;;;;5038020;28;20204;-83
2024/03/22 08:05:08;;;;;;;7.23;2.90;;;12.00;99.90;;;;;;5037457;28;20561;-82
2024/03/22 08:07:33;;;;;;;4.23;2.50;;;12.10;99.90;;;;;;5037882;28;20200;-82
2024/03/22 08:10:01;;;;;;;5.40;3.37;;;12.30;99.90;;;;;;5037750;28;20470;-82
2024/03/22 08:12:27;;;;;;;4.20;2.80;;;12.40;99.90;;;;;;5043273;28;20263;-82
2024/03/22 08:14:55;;;;;;;5.73;3.10;;;12.50;99.90;;;;;;5037135;28;20485;-82
2024/03/22 08:17:21;;;;;;;5.63;3.60;;;12.50;99.90;;;;;;5044202;28;20216;-82
2024/03/22 08:19:48;;;;;;;5.30;3.60;;;12.60;99.90;;;;;;5037946;28;20426;-82
2024/03/22 08:22:15;;;;;;;5.10;3.20;;;12.70;99.90;;;;;;5037503;28;20504;-82
2024/03/22 08:24:42;;;;;;;4.47;3.33;;;13.00;99.90;;;;;;5050887;28;20490;-82
2024/03/22 08:27:07;;;;;;;6.60;3.20;;;13.70;99.90;;;;;;5051326;28;20455;-84
2024/03/22 08:29:34;;;;;;;4.33;3.00;;;14.00;99.90;;;;;;5048292;28;20498;-83
2024/03/22 08:32:02;;;;;;;4.17;3.27;;;14.60;99.90;;;;;;5048160;28;20203;-83
2024/03/22 08:34:29;;;;;;;4.20;2.73;;;15.20;99.90;;;;;;5044377;28;20484;-83
2024/03/22 08:36:55;;;;;;;5.90;3.50;;;15.70;99.90;;;;;;5045538;28;20799;-83
2024/03/22 08:39:24;;;;;;;5.50;2.97;;;16.00;99.90;;;;;;5042771;28;20457;-83
2024/03/22 08:41:51;;;;;;;6.00;3.33;;;16.10;99.90;;;;;;5039742;28;20572;-83
2024/03/22 08:44:18;;;;;;;4.97;2.87;;;16.10;99.90;;;;;;5037072;28;21005;-83
2024/03/22 08:46:43;;;;;;;5.33;3.63;;;16.20;99.90;;;;;;5036871;28;20445;-83
2024/03/22 08:49:11;;;;;;;3.20;2.73;;;16.50;99.90;;;;;;5036611;28;20455;-83
2024/03/22 08:51:37;;;;;;;4.20;3.23;;;16.60;99.90;;;;;;5036537;28;20258;-83
2024/03/22 08:54:05;;;;;;;2.97;2.60;;;16.70;99.90;;;;;;5036098;28;20434;-83
2024/03/22 08:56:32;;;;;;;5.00;2.80;;;16.70;99.90;;;;;;5035994;28;20243;-83
2024/03/22 08:58:59;;;;;;;4.00;3.00;;;16.80;99.90;;;;;;5035876;28;20462;-83
2024/03/22 09:01:24;;;;;;;6.53;3.37;;;16.80;99.90;;;;;;5036365;28;20455;-83
2024/03/22 09:03:51;;;;;;;5.40;3.37;;;17.00;99.90;;;;;;5035936;28;20439;-83
2024/03/22 09:06:17;;;;;;;4.90;3.30;;;17.10;99.90;;;;;;5035800;28;20191;-83
2024/03/22 09:08:44;;;;;;;5.23;3.50;;;17.30;99.90;;;;;;5035923;28;20557;-83
2024/03/22 09:11:09;;;;;;;6.50;3.30;;;17.70;99.90;;;;;;5035971;28;20216;-83
2024/03/22 09:13:38;;;;;;;3.80;3.07;;;18.60;99.90;;;;;;5035320;28;20990;-83
2024/03/22 09:16:04;;;;;;;4.70;2.90;;;20.20;99.90;;;;;;5035928;28;20207;-83
2024/03/22 09:18:31;;;;;;;4.73;3.60;;;21.60;99.90;;;;;;5035922;28;20469;-83
2024/03/22 09:20:57;;;;;;;2.73;2.53;;;23.00;99.90;;;;;;5035765;28;20784;-83
2024/03/22 09:23:24;;;;;;;3.42;2.38;;;23.90;97.00;;;;;;5035206;28;20222;-83
2024/03/22 09:25:49;;;;;;;2.60;2.40;;;24.50;93.60;;;;;;5035303;28;20250;-83
2024/03/22 09:28:16;;;;;;;3.28;2.30;;;25.50;92.70;;;;;;5035139;28;20591;-83
2024/03/22 09:30:44;;;;;;;2.63;2.33;;;26.70;90.00;;;;;;5035898;28;20639;-83
2024/03/22 09:33:11;;;;;;;2.88;2.50;;;26.80;82.10;;;;;;5035581;28;20204;-83
2024/03/22 09:35:37;;;;;;;2.20;1.88;;;27.10;79.40;;;;;;5035050;28;20215;-83
2024/03/22 09:38:04;;;;;;;2.65;2.45;;;27.30;78.50;;;;;;5034775;28;20269;-83
2024/03/22 09:40:30;;;;;;;2.95;2.00;;;27.40;74.70;;;;;;5036745;28;20570;-83
2024/03/22 09:43:03;;;;;;;2.78;2.58;;;26.90;72.10;;;;;;5038854;28;20195;-83
2024/03/22 09:45:31;;;;;;;2.97;1.80;;;26.20;74.20;;;;;;5039476;28;20203;-83
2024/03/22 09:47:59;;;;;;;6.00;2.25;;;25.50;73.60;;;;;;5039011;28;20247;-83
2024/03/22 09:50:26;;;;;;;2.50;2.30;;;25.00;75.50;;;;;;5038480;28;20223;-83
2024/03/22 09:52:53;;;;;;;2.58;2.35;;;24.80;76.90;;;;;;5038768;28;20249;-83
2024/03/22 09:55:23;;;;;;;2.60;2.40;;;25.10;78.20;;;;;;5038991;28;20203;-82
2024/03/22 09:57:50;;;;;;;5.97;3.03;;;25.80;76.10;;;;;;5038479;28;20219;-83
2024/03/22 10:00:18;;;;;;;2.92;2.72;;;26.10;74.70;;;;;;5039009;28;20204;-83
2024/03/22 10:02:48;;;;;;;2.42;2.22;;;26.50;73.40;;;;;;5038813;28;20294;-83
2024/03/22 10:05:17;;;;;;;2.97;2.75;;;26.60;71.90;;;;;;5038709;28;20245;-83
2024/03/22 10:07:44;;;;;;;3.58;2.90;;;26.50;71.40;;;;;;5038292;28;20269;-83
2024/03/22 10:10:10;;;;;;;2.90;2.03;;;25.60;71.80;;;;;;5039432;28;20303;-83
2024/03/22 10:12:37;;;;;;;2.63;2.42;;;25.00;72.20;;;;;;5038328;28;20196;-83
2024/03/22 10:15:04;;;;;;;2.80;2.38;;;24.60;74.30;;;;;;5038473;28;20652;-83
2024/03/22 10:17:31;;;;;;;4.30;2.47;;;24.30;74.70;;;;;;5038521;28;20298;-83
2024/03/22 10:19:57;;;;;;;3.35;2.22;;;24.10;75.30;;;;;;5038210;28;20219;-83
2024/03/22 10:22:26;;;;;;;8.38;3.70;;;23.90;76.10;;;;;;5038825;28;20215;-83
2024/03/22 10:24:53;;;;;;;3.25;2.33;;;23.60;75.00;;;;;;5044152;28;20203;-82
2024/03/22 10:27:20;;;;;;;2.22;2.03;;;23.60;76.60;;;;;;5040781;28;20221;-83
2024/03/22 10:29:47;;;;;;;3.05;2.25;;;24.00;76.80;;;;;;5039148;28;20727;-83
2024/03/22 10:32:14;;;;;;;3.03;2.17;;;24.70;74.20;;;;;;5038676;28;20227;-83
2024/03/22 10:34:41;;;;;;;2.80;2.03;;;25.40;73.40;;;;;;5038335;28;20195;-83
2024/03/22 10:37:11;;;;;;;2.83;2.63;;;25.40;72.30;;;;;;5038786;28;20207;-83
2024/03/22 10:39:40;;;;;;;2.45;2.25;;;25.10;72.80;;;;;;5038450;28;20218;-83
2024/03/22 10:42:07;;;;;;;3.03;2.00;;;25.00;74.90;;;;;;5038069;28;20199;-83
2024/03/22 10:44:33;;;;;;;3.53;2.83;;;24.60;72.90;;;;;;5037929;28;20206;-82
2024/03/22 10:47:02;;;;;;;2.88;2.65;;;24.20;75.00;;;;;;5038319;28;20192;-82
2024/03/22 10:49:30;;;;;;;2.58;2.38;;;23.40;74.40;;;;;;5038276;28;20223;-82
2024/03/22 10:52:01;;;;;;;2.95;2.17;;;22.50;75.40;;;;;;5037201;28;20623;-83
2024/03/22 10:54:31;;;;;;;2.50;2.00;;;21.90;76.40;;;;;;5039485;28;20555;-82
2024/03/22 10:57:01;;;;;;;2.10;1.73;;;21.80;77.90;;;;;;5040123;28;20699;-83
2024/03/22 10:59:26;;;;;;;7.18;2.42;;;22.10;78.40;;;;;;5039458;28;20219;-83
2024/03/22 11:01:53;;;;;;;2.07;1.97;;;22.10;79.30;;;;;;5039446;28;20574;-84
2024/03/22 11:04:22;;;;;;;2.23;1.90;;;22.20;78.00;;;;;;5039606;28;20204;-83
2024/03/22 11:06:49;;;;;;;2.90;2.50;;;22.40;78.50;;;;;;5038534;28;20683;-83
2024/03/22 11:09:21;;;;;;;1.90;1.80;;;23.10;77.10;;;;;;5039157;28;20230;-83
2024/03/22 11:11:48;;;;;;;3.15;2.58;;;23.40;75.80;;;;;;5038941;28;20633;-82
2024/03/22 11:14:15;;;;;;;3.10;1.90;;;23.50;75.70;;;;;;5038966;28;20203;-83
2024/03/22 11:16:44;;;;;;;2.47;2.17;;;23.60;77.70;;;;;;5039755;28;20207;-84
2024/03/22 11:19:10;;;;;;;3.25;2.13;;;23.40;75.80;;;;;;5038578;28;20223;-84
2024/03/22 11:21:37;;;;;;;3.00;1.83;;;23.00;75.70;;;;;;5038515;28;20186;-83
2024/03/22 11:24:03;;;;;;;1.57;1.17;;;22.80;77.10;;;;;;5038394;28;20212;-83
2024/03/22 11:26:29;;;;;;;1.95;1.85;;;22.70;78.60;;;;;;5039501;28;20213;-83
2024/03/22 11:28:55;;;;;;;1.97;1.83;;;22.30;76.90;;;;;;5038440;28;20238;-83
2024/03/22 11:31:27;;;;;;;2.87;2.40;;;22.00;75.70;;;;;;5038661;28;20219;-83
2024/03/22 11:33:53;;;;;;;2.17;1.97;;;21.80;77.50;;;;;;5037191;28;20222;-83
2024/03/22 11:36:20;;;;;;;2.97;2.00;;;21.20;77.80;;;;;;5038571;28;20456;-84
2024/03/22 11:38:49;;;;;;;1.70;1.60;;;21.10;78.20;;;;;;5051460;28;20477;-82
2024/03/22 11:41:18;;;;;;;4.30;1.93;;;21.00;79.90;;;;;;5057437;28;20521;-80
2024/03/22 11:43:44;;;;;;;1.70;1.60;;;20.90;80.80;;;;;;5057955;28;20465;-81
2024/03/22 11:46:11;;;;;;;1.97;1.77;;;21.00;80.60;;;;;;5056305;28;20422;-80
2024/03/22 11:48:40;;;;;;;2.03;1.67;;;21.30;78.60;;;;;;5048013;28;20468;-82
2024/03/22 11:51:08;;;;;;;1.77;1.63;;;21.40;79.00;;;;;;5036806;28;21092;-82
2024/03/22 11:53:34;;;;;;;2.07;1.73;;;21.50;77.20;;;;;;5038101;28;20504;-83
2024/03/22 11:56:03;;;;;;;2.30;1.37;;;21.50;77.40;;;;;;5037683;28;20435;-81
2024/03/22 11:58:29;;;;;;;1.60;1.50;;;21.50;78.50;;;;;;5036311;28;20474;-83
2024/03/22 12:00:56;;;;;;;1.67;1.57;;;21.60;78.40;;;;;;5037996;28;20521;-82
2024/03/22 12:03:25;;;;;;;1.80;1.70;;;21.50;78.00;;;;;;5036921;28;20207;-83
2024/03/22 12:06:04;;;;;;;2.33;1.73;;;21.40;76.80;;;;;;5035818;28;20450;-83
2024/03/22 12:08:42;;;;;;;2.43;2.07;;;21.10;77.00;;;;;;5036038;28;20470;-82
2024/03/22 12:11:17;;;;;;;2.63;1.50;;;21.00;78.30;;;;;;5035980;28;20454;-84
2024/03/22 12:13:44;;;;;;;1.30;1.20;;;21.00;80.80;;;;;;5036242;28;20457;-83
2024/03/22 12:16:14;;;;;;;1.80;1.70;;;21.10;80.60;;;;;;5034873;28;20203;-83
2024/03/22 12:18:42;;;;;;;4.00;1.63;;;21.20;80.40;;;;;;5035953;28;20497;-82
2024/03/22 12:21:22;;;;;;;1.83;1.60;;;21.30;78.60;;;;;;5035152;28;20942;-82
2024/03/22 12:23:52;;;;;;;1.40;1.30;;;21.40;77.90;;;;;;5035234;28;20430;-83
2024/03/22 12:26:31;;;;;;;3.03;1.40;;;21.70;79.30;;;;;;5035215;28;20541;-83
2024/03/22 12:28:59;;;;;;;1.27;1.13;;;21.70;76.00;;;;;;5035594;28;20648;-83
2024/03/22 12:31:38;;;;;;;1.50;1.40;;;21.70;78.00;;;;;;5035395;28;20310;-81
2024/03/22 12:34:04;;;;;;;1.40;1.20;;;21.70;75.70;;;;;;5035337;28;20469;-83
2024/03/22 12:36:36;;;;;;;1.10;1.00;;;21.70;78.80;;;;;;5035616;28;20489;-82
2024/03/22 12:39:02;;;;;;;1.70;1.57;;;21.60;77.30;;;;;;5036572;28;20223;-82
2024/03/22 12:41:29;;;;;;;4.83;1.33;;;21.40;76.80;;;;;;5037852;28;20199;-83
2024/03/22 12:43:55;;;;;;;1.13;1.10;;;21.40;77.90;;;;;;5038402;28;20974;-83
2024/03/22 12:46:22;;;;;;;4.80;2.00;;;21.40;76.70;;;;;;5039921;28;20442;-82
2024/03/22 12:48:48;;;;;;;2.13;1.93;;;21.20;75.80;;;;;;5040416;28;20234;-83
2024/03/22 12:51:15;;;;;;;2.93;1.33;;;21.00;77.90;;;;;;5038602;28;20477;-83
2024/03/22 12:53:42;;;;;;;3.00;1.00;;;21.10;78.40;;;;;;5039709;28;20257;-83
2024/03/22 12:56:09;;;;;;;1.20;1.10;;;21.00;78.60;;;;;;5038631;28;20446;-83